createdAt,value
2022-08-02T00:00:57.139Z,100620.66
2022-08-02T00:05:59.650Z,100614.41
2022-08-02T00:11:02.260Z,100627.13
2022-08-02T00:16:05.336Z,100618.09
2022-08-02T00:21:08.017Z,100625.69
2022-08-02T00:26:10.507Z,100621.59
2022-08-02T00:31:13.171Z,100621.41
2022-08-02T00:36:16.243Z,100643.41
2022-08-02T00:41:21.004Z,100650.81
2022-08-02T00:46:23.570Z,100655.25
2022-08-02T00:51:26.171Z,100648.19
2022-08-02T00:56:28.672Z,100640.31
2022-08-02T01:01:56.141Z,100651.69
2022-08-02T01:07:12.007Z,100655.97
2022-08-02T01:12:16.089Z,100646.88
2022-08-02T01:17:30.378Z,100645.53
2022-08-02T01:23:00.993Z,100654.97
2022-08-02T01:28:26.055Z,100659.69
2022-08-02T01:33:36.575Z,100660.66
2022-08-02T01:38:50.917Z,100640.88
2022-08-02T01:43:56.863Z,100661.03
2022-08-02T01:49:00.686Z,100661.69
2022-08-02T01:54:03.514Z,100653.34
2022-08-02T01:59:06.406Z,100657.34
2022-08-02T02:04:09.482Z,100651.63
2022-08-02T02:09:13.428Z,100652.56
2022-08-02T02:14:17.040Z,100654.69
2022-08-02T02:19:22.690Z,100652.78
2022-08-02T02:24:25.201Z,100654.38
2022-08-02T02:29:29.512Z,100647.31
2022-08-02T02:34:38.485Z,100655.25
2022-08-02T02:39:42.368Z,100651.88
2022-08-02T02:44:47.577Z,100648.72
2022-08-02T02:49:51.511Z,100647.13
2022-08-02T02:54:54.702Z,100656.31
2022-08-02T02:59:57.255Z,100660.34
2022-08-02T03:05:02.965Z,100674.59
2022-08-02T03:10:06.998Z,100672.75
2022-08-02T03:15:13.864Z,100672.09
2022-08-02T03:20:20.236Z,100679.19
2022-08-02T03:25:22.682Z,100669.06
2022-08-02T03:30:27.816Z,100695.31
2022-08-02T03:35:30.505Z,100687.38
2022-08-02T03:40:33.341Z,100696.88
2022-08-02T03:45:37.139Z,100698.44
2022-08-02T03:50:40.317Z,100707.28
2022-08-02T03:55:42.941Z,100711.38
2022-08-02T04:00:45.632Z,100699.81
2022-08-02T04:06:03.379Z,100722.69
2022-08-02T04:11:26.105Z,100720.44
2022-08-02T04:16:49.243Z,100733.53
2022-08-02T04:21:52.658Z,100730.44
2022-08-02T04:27:03.420Z,100738.94
2022-08-02T04:32:22.883Z,100726.34
2022-08-02T04:37:26.524Z,100739.34
2022-08-02T04:42:29.945Z,100739.47
2022-08-02T04:48:02.391Z,100761.72
2022-08-02T04:52:54.829Z,100744.03
2022-08-02T04:57:58.330Z,100759.97
2022-08-02T05:03:01.457Z,100759.44
2022-08-02T05:08:04.235Z,100755.25
2022-08-02T05:13:07.070Z,100769.06
2022-08-02T05:18:09.679Z,100774.38
2022-08-02T05:23:12.368Z,100787.97
2022-08-02T05:28:14.903Z,100790.06
2022-08-02T05:33:17.396Z,100792.63
2022-08-02T05:38:19.861Z,100798.00
2022-08-02T05:43:28.419Z,100808.38
2022-08-02T05:48:32.250Z,100813.78
2022-08-02T05:53:47.697Z,100811.75
2022-08-02T05:59:24.307Z,100816.22
2022-08-02T06:04:33.331Z,100814.97
2022-08-02T06:09:36.201Z,100819.97
2022-08-02T06:14:38.577Z,100824.97
2022-08-02T06:19:51.947Z,100845.19
2022-08-02T06:24:56.828Z,100846.78
2022-08-02T06:29:59.563Z,100845.50
2022-08-02T06:35:05.742Z,100843.53
2022-08-02T06:40:28.117Z,100857.41
2022-08-02T06:45:30.490Z,100858.44
2022-08-02T06:50:33.377Z,100854.75
2022-08-02T06:55:43.638Z,100852.63
2022-08-02T07:00:47.369Z,100853.53
2022-08-02T07:05:49.746Z,100849.00
2022-08-02T07:10:52.424Z,100847.91
2022-08-02T07:15:55.917Z,100854.84
2022-08-02T07:20:58.391Z,100855.84
2022-08-02T07:26:03.269Z,100850.53
2022-08-02T07:31:07.046Z,100867.06
2022-08-02T07:36:17.037Z,100874.25
2022-08-02T07:41:25.043Z,100883.94
2022-08-02T07:46:27.825Z,100866.13
2022-08-02T07:51:33.225Z,100869.63
2022-08-02T07:56:35.725Z,100866.81
2022-08-02T08:01:38.238Z,100860.22
2022-08-02T08:06:49.756Z,100858.03
2022-08-02T08:11:52.206Z,100856.44
2022-08-02T08:16:54.551Z,100857.03
2022-08-02T08:21:56.957Z,100860.38
2022-08-02T08:26:59.407Z,100862.47
2022-08-02T08:32:01.882Z,100863.75
2022-08-02T08:37:04.449Z,100854.97
2022-08-02T08:42:08.870Z,100860.75
2022-08-02T08:47:12.005Z,100865.59
2022-08-02T08:52:15.194Z,100857.25
2022-08-02T08:57:19.431Z,100865.34
2022-08-02T09:02:26.014Z,100864.69
2022-08-02T09:07:30.460Z,100861.25
2022-08-02T09:12:32.990Z,100859.22
2022-08-02T09:17:35.410Z,100862.97
2022-08-02T09:22:38.107Z,100867.78
2022-08-02T09:27:40.558Z,100862.75
2022-08-02T09:32:48.253Z,100860.53
2022-08-02T09:37:50.827Z,100857.78
2022-08-02T09:42:59.697Z,100854.31
2022-08-02T09:48:11.318Z,100853.78
2022-08-02T09:53:14.362Z,100856.69
2022-08-02T09:58:21.090Z,100858.44
2022-08-02T10:03:25.969Z,100854.06
2022-08-02T10:08:37.388Z,100833.75
2022-08-02T10:13:39.875Z,100844.78
2022-08-02T10:18:42.204Z,100846.84
2022-08-02T10:23:46.388Z,100830.50
2022-08-02T10:28:50.176Z,100839.38
2022-08-02T10:33:53.610Z,100833.13
2022-08-02T10:38:58.816Z,100832.50
2022-08-02T10:44:01.689Z,100819.44
2022-08-02T10:49:38.180Z,100823.56
2022-08-02T10:54:41.731Z,100808.59
2022-08-02T10:59:45.124Z,100806.84
2022-08-02T11:04:47.624Z,100813.16
2022-08-02T11:09:51.313Z,100809.94
2022-08-02T11:15:04.020Z,100812.22
2022-08-02T11:20:13.150Z,100798.66
2022-08-02T11:25:24.517Z,100801.84
2022-08-02T11:30:27.938Z,100797.19
2022-08-02T11:35:41.053Z,100804.53
2022-08-02T11:40:44.144Z,100795.63
2022-08-02T11:45:46.863Z,100796.84
2022-08-02T11:50:49.498Z,100801.41
2022-08-02T11:55:57.709Z,100803.66
2022-08-02T12:01:00.742Z,100800.28
2022-08-02T12:06:06.863Z,100792.78
2022-08-02T12:11:13.434Z,100795.59
2022-08-02T12:16:34.700Z,100775.91
2022-08-02T12:21:37.097Z,100782.22
2022-08-02T12:26:46.598Z,100799.59
2022-08-02T12:31:56.524Z,100785.00
2022-08-02T12:37:08.763Z,100802.97
2022-08-02T12:42:15.720Z,100795.31
2022-08-02T12:47:18.440Z,100797.00
2022-08-02T12:52:24.953Z,100789.34
2022-08-02T12:57:27.454Z,100796.91
2022-08-02T13:02:31.397Z,100803.91
2022-08-02T13:07:33.833Z,100800.88
2022-08-02T13:12:37.544Z,100795.31
2022-08-02T13:17:40.287Z,100794.13
2022-08-02T13:22:52.906Z,100781.78
2022-08-02T13:27:56.150Z,100781.56
2022-08-02T13:33:01.129Z,100786.47
2022-08-02T13:38:04.668Z,100766.25
2022-08-02T13:43:07.186Z,100769.34
2022-08-02T13:48:16.626Z,100768.22
2022-08-02T13:53:20.928Z,100763.16
2022-08-02T13:58:23.471Z,100755.69
2022-08-02T14:03:26.498Z,100760.69
2022-08-02T14:08:49.612Z,100752.06
2022-08-02T14:13:52.031Z,100754.69
2022-08-02T14:18:54.409Z,100753.38
2022-08-02T14:23:56.894Z,100750.00
2022-08-02T14:28:59.329Z,100764.41
2022-08-02T14:34:01.914Z,100755.13
2022-08-02T14:39:04.537Z,100748.22
2022-08-02T14:44:09.771Z,100749.28
2022-08-02T14:49:14.119Z,100758.13
2022-08-02T14:54:17.314Z,100737.44
2022-08-02T14:59:20.773Z,100736.28
2022-08-02T15:04:23.386Z,100743.22
2022-08-02T15:09:26.344Z,100736.97
2022-08-02T15:14:28.767Z,100724.47
2022-08-02T15:19:56.079Z,100727.72
2022-08-02T15:24:54.284Z,100723.47
2022-08-02T15:30:00.880Z,100727.78
2022-08-02T15:35:03.561Z,100729.97
2022-08-02T15:40:06.670Z,100725.94
2022-08-02T15:45:13.210Z,100735.13
2022-08-02T15:50:18.813Z,100729.03
2022-08-02T15:55:21.358Z,100730.44
2022-08-02T16:00:23.767Z,100733.31
2022-08-02T16:05:26.354Z,100733.81
2022-08-02T16:10:29.003Z,100731.81
2022-08-02T16:15:31.459Z,100725.19
2022-08-02T16:20:33.886Z,100734.03
2022-08-02T16:25:41.541Z,100711.16
2022-08-02T16:30:54.336Z,100704.34
2022-08-02T16:36:06.954Z,100725.38
2022-08-02T16:41:10.458Z,100722.84
2022-08-02T16:46:13.034Z,100729.56
2022-08-02T16:51:15.638Z,100726.81
2022-08-02T16:56:18.149Z,100722.50
2022-08-02T17:01:27.451Z,100745.03
2022-08-02T17:06:30.487Z,100743.28
2022-08-02T17:11:33.124Z,100739.81
2022-08-02T17:16:35.635Z,100751.28
2022-08-02T17:21:38.808Z,100754.09
2022-08-02T17:26:41.200Z,100747.59
2022-08-02T17:32:02.371Z,100755.19
2022-08-02T17:37:08.996Z,100749.44
2022-08-02T17:42:11.663Z,100750.78
2022-08-02T17:47:22.824Z,100752.22
2022-08-02T17:52:51.281Z,100751.53
2022-08-02T17:57:58.692Z,100760.94
2022-08-02T18:03:05.991Z,100770.31
2022-08-02T18:08:10.225Z,100783.06
2022-08-02T18:13:16.557Z,100788.38
2022-08-02T18:18:30.020Z,100780.03
2022-08-02T18:23:32.773Z,100791.03
2022-08-02T18:28:40.553Z,100797.63
2022-08-02T18:33:57.556Z,100801.66
2022-08-02T18:39:08.231Z,100805.13
2022-08-02T18:44:11.490Z,100813.25
2022-08-02T18:49:18.464Z,100815.66
2022-08-02T18:54:30.641Z,100823.84
2022-08-02T18:59:43.375Z,100829.03
2022-08-02T19:04:54.352Z,100836.94
2022-08-02T19:09:58.538Z,100824.97
2022-08-02T19:15:01.969Z,100827.84
2022-08-02T19:20:05.932Z,100834.88
2022-08-02T19:25:09.149Z,100852.25
2022-08-02T19:30:17.259Z,100844.84
2022-08-02T19:40:42.402Z,100834.34
2022-08-02T19:45:49.999Z,100835.72
2022-08-02T19:51:00.797Z,100826.31
2022-08-02T19:56:04.424Z,100840.16
2022-08-02T20:01:07.771Z,100832.13
2022-08-02T20:06:19.427Z,100838.97
2022-08-02T20:11:24.558Z,100809.97
2022-08-02T20:16:32.674Z,100845.75
2022-08-02T20:21:37.842Z,100841.38
2022-08-02T20:26:47.516Z,100845.47
2022-08-02T20:31:50.737Z,100841.72
2022-08-02T20:36:54.162Z,100840.94
2022-08-02T20:41:58.997Z,100844.88
2022-08-02T20:47:03.209Z,100828.97
2022-08-02T20:52:24.117Z,100835.44
2022-08-02T20:57:49.081Z,100839.06
2022-08-02T21:02:50.581Z,100846.81
2022-08-02T21:07:55.026Z,100833.00
2022-08-02T21:12:57.531Z,100832.84
2022-08-02T21:18:05.738Z,100832.31
2022-08-02T21:23:19.887Z,100823.03
2022-08-02T21:28:22.867Z,100831.63
2022-08-02T21:33:25.635Z,100829.84
2022-08-02T21:38:35.415Z,100838.00
2022-08-02T21:43:43.937Z,100840.53
2022-08-02T21:48:47.005Z,100849.66
2022-08-02T21:54:18.474Z,100847.38
2022-08-02T21:59:15.887Z,100838.03
2022-08-02T22:04:19.422Z,100855.69
2022-08-02T22:09:43.201Z,100851.06
2022-08-02T22:14:53.766Z,100853.38
2022-08-02T22:19:58.290Z,100847.28
2022-08-02T22:25:01.227Z,100846.53
2022-08-02T22:30:08.213Z,100855.41
2022-08-02T22:35:12.391Z,100860.56
2022-08-02T22:40:14.847Z,100855.25
2022-08-02T22:45:18.210Z,100862.72
2022-08-02T22:50:21.409Z,100858.94
2022-08-02T22:55:24.533Z,100867.19
2022-08-02T22:58:52.547Z,100843.22
2022-08-02T23:00:35.028Z,100874.03
2022-08-02T23:05:39.260Z,100873.88
2022-08-02T23:10:43.101Z,100877.38
2022-08-02T23:16:05.221Z,100884.41
2022-08-02T23:21:07.959Z,100879.81
2022-08-02T23:26:10.570Z,100882.56
2022-08-02T23:31:30.104Z,100883.28
2022-08-02T23:36:33.238Z,100883.22
2022-08-02T23:41:36.614Z,100873.47
2022-08-02T23:46:47.042Z,100876.06
2022-08-02T23:51:51.372Z,100878.22
2022-08-02T23:56:54.247Z,100886.50
